Time;durP1;ratioP1;P1;durP2;ratioP2;P2;SDS_P1;SDS_P2;PMS_P1;PMS_P2;Temp;Humidity;BMP_temperature;BMP_pressure;BME280_temperature;BME280_humidity;BME280_pressure;Samples;Min_cycle;Max_cycle;Signal;HPM_P1;HPM_P2
2020/12/02 00:02:33;;;;;;;69.43;32.65;;;;;;;-2.24;100.00;101637.38;5055864;28;20681;-50
2020/12/02 00:05:06;;;;;;;67.55;32.47;;;;;;;-2.27;100.00;101638.72;5058709;28;20053;-47
2020/12/02 00:07:34;;;;;;;66.65;32.97;;;;;;;-2.32;100.00;101640.81;5059364;28;20510;-55
2020/12/02 00:10:01;;;;;;;69.78;34.17;;;;;;;-2.36;100.00;101647.19;5056292;28;20790;-49
2020/12/02 00:12:28;;;;;;;71.72;33.28;;;;;;;-2.36;100.00;101647.19;5053698;28;20110;-51
2020/12/02 00:14:54;;;;;;;73.78;34.50;;;;;;;-2.19;100.00;101642.84;5055893;28;20102;-52
2020/12/02 00:17:21;;;;;;;80.88;36.65;;;;;;;-2.34;100.00;101643.19;5055467;28;20152;-49
2020/12/02 00:19:49;;;;;;;82.53;36.42;;;;;;;-2.30;100.00;101646.88;5057377;28;20071;-49
2020/12/02 00:22:22;;;;;;;81.32;35.10;;;;;;;-2.27;100.00;101653.78;5058251;28;20056;-49
2020/12/02 00:24:50;;;;;;;71.25;33.45;;;;;;;-2.28;100.00;101655.41;5050805;28;20154;-50
2020/12/02 00:27:23;;;;;;;72.25;32.30;;;;;;;-2.13;100.00;101655.94;5059135;28;20044;-48
2020/12/02 00:29:49;;;;;;;68.57;32.97;;;;;;;-2.19;100.00;101655.38;5057050;28;20075;-50
2020/12/02 00:32:26;;;;;;;72.32;31.55;;;;;;;-2.26;100.00;101656.44;5054810;28;20160;-47
2020/12/02 00:34:54;;;;;;;74.88;34.60;;;;;;;-2.28;100.00;101647.88;5056595;28;20045;-46
2020/12/02 00:37:22;;;;;;;67.90;32.42;;;;;;;-2.35;100.00;101643.94;5058951;28;20571;-51
2020/12/02 00:39:48;;;;;;;79.93;34.63;;;;;;;-2.38;100.00;101645.28;5056775;28;20215;-47
2020/12/02 00:42:15;;;;;;;74.47;35.33;;;;;;;-2.36;100.00;101649.72;5054506;28;20049;-50
2020/12/02 00:44:42;;;;;;;77.70;36.47;;;;;;;-2.39;100.00;101654.44;5054372;28;20053;-47
2020/12/02 00:47:11;;;;;;;76.38;35.05;;;;;;;-2.42;100.00;101658.25;5057362;28;20044;-50
2020/12/02 00:49:38;;;;;;;74.32;34.58;;;;;;;-2.41;100.00;101655.00;5057658;28;20125;-48
2020/12/02 00:52:06;;;;;;;76.93;34.03;;;;;;;-2.49;100.00;101651.81;5056445;28;20529;-53
2020/12/02 00:54:34;;;;;;;77.63;33.65;;;;;;;-2.56;100.00;101651.97;5057246;28;20048;-49
2020/12/02 00:57:01;;;;;;;79.57;36.67;;;;;;;-2.58;100.00;101645.94;5053987;28;20048;-46
2020/12/02 00:59:32;;;;;;;76.15;35.28;;;;;;;-2.54;100.00;101643.00;5053404;28;20504;-48
2020/12/02 01:02:17;;;;;;;85.57;36.10;;;;;;;-2.52;100.00;101640.59;5053814;28;20045;-46
2020/12/02 01:04:45;;;;;;;80.65;34.10;;;;;;;-2.56;100.00;101639.44;5055346;28;20045;-48
2020/12/02 01:07:13;;;;;;;73.72;33.80;;;;;;;-2.55;100.00;101638.69;5055464;28;20451;-47
2020/12/02 01:09:40;;;;;;;76.47;33.58;;;;;;;-2.52;100.00;101644.00;5056370;28;20113;-52
2020/12/02 01:12:12;;;;;;;64.70;30.63;;;;;;;-2.61;100.00;101645.66;5045913;28;20134;-48
2020/12/02 01:14:39;;;;;;;69.15;32.72;;;;;;;-2.56;100.00;101641.94;5052559;28;20102;-46
2020/12/02 01:17:07;;;;;;;73.05;33.30;;;;;;;-2.63;100.00;101654.66;5045558;28;20053;-49
2020/12/02 01:19:35;;;;;;;68.05;32.13;;;;;;;-2.60;100.00;101653.31;5053890;28;20592;-48
2020/12/02 01:22:29;;;;;;;64.00;31.95;;;;;;;-2.63;100.00;101654.66;5056572;28;20044;-50
2020/12/02 01:25:17;;;;;;;65.35;30.92;;;;;;;-2.55;100.00;101646.22;5055772;28;20056;-47
2020/12/02 01:27:52;;;;;;;62.20;29.45;;;;;;;-2.65;100.00;101643.59;5053135;28;20447;-47
2020/12/02 01:30:20;;;;;;;64.20;30.10;;;;;;;-2.56;100.00;101641.94;5057011;28;20098;-50
2020/12/02 01:32:46;;;;;;;54.67;28.55;;;;;;;-2.22;100.00;101645.94;5055669;28;20049;-51
2020/12/02 01:35:16;;;;;;;60.47;29.83;;;;;;;-2.58;100.00;101643.44;5053848;28;20067;-49
2020/12/02 01:37:46;;;;;;;60.83;30.40;;;;;;;-2.40;100.00;101644.25;5053807;28;20131;-51
2020/12/02 01:40:28;;;;;;;62.35;29.88;;;;;;;-2.61;100.00;101646.53;5056964;28;20126;-48
2020/12/02 01:43:01;;;;;;;56.35;28.25;;;;;;;-2.59;100.00;101644.16;5054371;28;20181;-46
2020/12/02 01:45:35;;;;;;;62.45;30.00;;;;;;;-2.62;100.00;101634.75;5053173;28;20072;-52
2020/12/02 01:48:28;;;;;;;61.90;29.35;;;;;;;-2.61;100.00;101640.63;5055262;28;20094;-48
2020/12/02 01:51:20;;;;;;;69.00;30.55;;;;;;;-2.64;100.00;101642.84;5053745;28;20127;-50
2020/12/02 01:53:49;;;;;;;61.63;30.20;;;;;;;-2.61;100.00;101638.13;5054573;28;20095;-48
2020/12/02 01:56:57;;;;;;;66.63;30.23;;;;;;;-2.38;100.00;101641.13;5060072;28;20060;-48
2020/12/02 01:59:29;;;;;;;68.28;31.27;;;;;;;-2.54;100.00;101643.00;5009713;28;20060;-46
2020/12/02 02:02:05;;;;;;;61.10;29.65;;;;;;;-2.56;100.00;101640.31;5038357;28;20060;-49
2020/12/02 02:04:52;;;;;;;64.50;30.15;;;;;;;-2.68;100.00;101648.31;5037140;28;20053;-52
2020/12/02 02:07:24;;;;;;;61.28;29.95;;;;;;;-2.47;100.00;101639.41;5046647;28;20114;-48
2020/12/02 02:09:56;;;;;;;57.58;28.45;;;;;;;-2.33;100.00;101644.94;5054015;28;20041;-49
2020/12/02 02:12:54;;;;;;;67.90;30.58;;;;;;;-2.65;100.00;101641.97;5056427;28;20076;-47
2020/12/02 02:15:34;;;;;;;65.43;30.85;;;;;;;-2.62;100.00;101642.25;5027765;28;20103;-46
2020/12/02 02:18:08;;;;;;;68.40;31.55;;;;;;;-2.74;100.00;101640.22;5055457;28;20141;-51
2020/12/02 02:20:39;;;;;;;57.65;29.83;;;;;;;-2.75;100.00;101645.97;5055770;28;20079;-46
2020/12/02 02:23:09;;;;;;;61.10;28.65;;;;;;;-2.63;100.00;101638.00;5053241;28;20091;-50
2020/12/02 02:25:36;;;;;;;63.38;31.42;;;;;;;-2.67;100.00;101642.59;5052526;28;20044;-50
2020/12/02 02:28:03;;;;;;;66.20;31.08;;;;;;;-2.79;100.00;101641.41;5055151;28;20479;-50
2020/12/02 02:30:30;;;;;;;63.05;30.40;;;;;;;-2.83;100.00;101638.63;5055884;28;20106;-49
2020/12/02 02:32:57;;;;;;;62.03;30.15;;;;;;;-2.66;100.00;101631.81;5054108;28;21196;-47
2020/12/02 02:35:24;;;;;;;59.50;28.92;;;;;;;-2.56;100.00;101631.91;5053236;28;20052;-46
2020/12/02 02:37:51;;;;;;;62.20;28.70;;;;;;;-2.75;100.00;101635.97;5053692;28;20075;-46
2020/12/02 02:40:17;;;;;;;56.42;28.92;;;;;;;-2.66;100.00;101630.19;5055989;28;20397;-48
2020/12/02 02:42:50;;;;;;;62.80;29.55;;;;;;;-2.71;100.00;101635.50;5047143;28;20480;-47
2020/12/02 02:45:18;;;;;;;57.65;27.60;;;;;;;-2.73;100.00;101630.31;5055741;28;20463;-51
2020/12/02 02:47:45;;;;;;;57.65;28.20;;;;;;;-2.92;100.00;101634.34;5054349;28;20053;-47
2020/12/02 02:50:16;;;;;;;50.90;26.27;;;;;;;-2.83;100.00;101633.59;5052365;28;20114;-48
2020/12/02 02:52:43;;;;;;;60.20;30.15;;;;;;;-2.88;100.00;101621.38;5052844;28;20102;-48
2020/12/02 02:55:15;;;;;;;60.08;29.10;;;;;;;-2.93;100.00;101628.47;5056062;28;20048;-46
2020/12/02 02:57:43;;;;;;;56.42;27.65;;;;;;;-2.79;100.00;101629.78;5055978;28;20219;-46
2020/12/02 03:00:15;;;;;;;52.53;28.05;;;;;;;-2.78;100.00;101635.66;5052221;28;20049;-50
2020/12/02 03:02:42;;;;;;;54.10;28.70;;;;;;;-2.97;100.00;101630.53;5052844;28;20060;-48
2020/12/02 03:05:09;;;;;;;56.60;28.20;;;;;;;-2.98;100.00;101626.28;5056181;28;20446;-49
2020/12/02 03:07:36;;;;;;;63.60;29.38;;;;;;;-3.05;100.00;101632.34;5055910;28;20509;-50
2020/12/02 03:10:03;;;;;;;61.70;28.85;;;;;;;-3.03;100.00;101633.34;5053287;28;20048;-47
2020/12/02 03:12:30;;;;;;;61.13;28.70;;;;;;;-3.03;100.00;101630.84;5056170;28;20110;-48
2020/12/02 03:14:57;;;;;;;63.88;29.73;;;;;;;-3.02;100.00;101624.22;5058344;28;20049;-46
2020/12/02 03:17:25;;;;;;;60.00;29.40;;;;;;;-3.10;100.00;101631.91;5059752;28;20044;-47
2020/12/02 03:20:07;;;;;;;59.22;28.55;;;;;;;-2.88;100.00;101629.78;5058630;28;20102;-49
2020/12/02 03:22:34;;;;;;;52.22;27.17;;;;;;;-2.90;100.00;101623.75;5056407;28;20397;-46
2020/12/02 03:25:01;;;;;;;52.65;27.17;;;;;;;-2.84;100.00;101628.44;5058357;28;20091;-47
2020/12/02 03:27:27;;;;;;;52.25;27.52;;;;;;;-2.98;100.00;101621.25;5059477;28;20061;-47
2020/12/02 03:29:54;;;;;;;53.80;27.50;;;;;;;-2.86;100.00;101633.34;5056451;28;20101;-48
2020/12/02 03:32:21;;;;;;;53.55;27.52;;;;;;;-2.88;100.00;101623.88;5055806;28;20045;-47
2020/12/02 03:34:48;;;;;;;51.97;26.08;;;;;;;-3.00;100.00;101631.16;5056166;28;20072;-51
2020/12/02 03:37:14;;;;;;;51.42;27.58;;;;;;;-3.13;100.00;101635.72;5058874;28;20068;-46
2020/12/02 03:39:40;;;;;;;59.83;29.02;;;;;;;-3.09;100.00;101633.66;5059411;28;20802;-47
2020/12/02 03:42:07;;;;;;;66.13;30.35;;;;;;;-3.20;100.00;101629.25;5048048;28;20092;-46
2020/12/02 03:44:33;;;;;;;65.97;29.50;;;;;;;-3.15;100.00;101628.06;5055214;28;20056;-47
2020/12/02 03:47:00;;;;;;;64.65;31.08;;;;;;;-3.25;100.00;101624.53;5058695;28;20098;-45
2020/12/02 03:49:26;;;;;;;70.47;32.40;;;;;;;-3.23;100.00;101621.47;5059861;28;20578;-44
2020/12/02 03:51:52;;;;;;;61.70;29.40;;;;;;;-3.06;100.00;101618.03;5058262;28;20048;-50
2020/12/02 03:54:19;;;;;;;60.65;29.95;;;;;;;-3.28;100.00;101619.22;5055050;28;20057;-49
2020/12/02 03:56:45;;;;;;;67.90;31.75;;;;;;;-3.18;100.00;101614.38;5055981;28;20587;-45
2020/12/02 03:59:11;;;;;;;69.32;32.08;;;;;;;-3.09;100.00;101610.25;5058936;28;20443;-50
2020/12/02 04:01:38;;;;;;;76.18;34.50;;;;;;;-3.14;100.00;101611.44;5057816;28;20056;-47
2020/12/02 04:04:04;;;;;;;76.68;33.40;;;;;;;-2.88;100.00;101611.34;5054068;28;20727;-51
2020/12/02 04:06:30;;;;;;;72.28;33.20;;;;;;;-2.96;100.00;101608.13;5054573;28;20102;-54
2020/12/02 04:08:57;;;;;;;69.13;33.55;;;;;;;-2.98;100.00;101606.22;5057301;28;20420;-45
2020/12/02 04:11:23;;;;;;;72.60;32.55;;;;;;;-3.08;100.00;101607.88;5058687;28;20070;-48
2020/12/02 04:13:50;;;;;;;71.70;31.75;;;;;;;-3.07;100.00;101603.75;5057682;28;20052;-44
2020/12/02 04:16:17;;;;;;;74.15;32.88;;;;;;;-3.01;100.00;101599.28;5054644;28;20064;-48
2020/12/02 04:18:45;;;;;;;74.70;33.67;;;;;;;-3.14;100.00;101603.91;5054910;28;20118;-52
2020/12/02 04:21:11;;;;;;;70.63;33.20;;;;;;;-3.17;100.00;101608.63;5057012;28;20053;-49
2020/12/02 04:23:37;;;;;;;67.32;33.13;;;;;;;-3.00;100.00;101601.09;5057499;28;20511;-49
2020/12/02 04:26:04;;;;;;;64.75;31.73;;;;;;;-2.94;100.00;101603.28;5055498;28;20041;-47
2020/12/02 04:28:30;;;;;;;64.28;30.90;;;;;;;-3.15;100.00;101595.50;5054870;28;20082;-51
2020/12/02 04:30:58;;;;;;;70.75;30.90;;;;;;;-3.16;100.00;101603.75;5057553;28;20055;-46
2020/12/02 04:33:26;;;;;;;65.97;30.73;;;;;;;-3.18;100.00;101597.72;5059054;28;20052;-51
2020/12/02 04:35:52;;;;;;;62.58;30.40;;;;;;;-3.09;100.00;101598.59;5057181;28;20044;-47
2020/12/02 04:38:19;;;;;;;56.55;28.05;;;;;;;-3.08;100.00;101581.94;5055010;28;20847;-49
2020/12/02 04:40:45;;;;;;;62.83;28.15;;;;;;;-3.23;100.00;101591.41;5055908;28;20045;-50
2020/12/02 04:43:33;;;;;;;57.35;28.25;;;;;;;-3.37;100.00;101589.22;5058643;28;20075;-48
2020/12/02 04:46:03;;;;;;;62.95;28.50;;;;;;;-3.39;100.00;101585.66;5056101;28;20110;-48
2020/12/02 04:48:32;;;;;;;62.50;27.70;;;;;;;-3.35;100.00;101598.63;5054265;28;20057;-49
2020/12/02 04:51:26;;;;;;;53.53;27.30;;;;;;;-3.38;100.00;101593.31;5057249;28;20095;-49
2020/12/02 04:53:58;;;;;;;53.40;27.92;;;;;;;-3.40;100.00;101586.41;5035724;28;20132;-45
2020/12/02 04:56:26;;;;;;;49.58;25.60;;;;;;;-3.29;100.00;101587.41;5035077;28;20111;-48
2020/12/02 04:58:55;;;;;;;60.60;28.63;;;;;;;-3.42;100.00;101590.38;5035912;28;20045;-50
2020/12/02 05:01:30;;;;;;;62.40;28.60;;;;;;;-3.52;100.00;101595.22;5038783;28;20076;-48
2020/12/02 05:03:56;;;;;;;64.57;30.00;;;;;;;-3.58;100.00;101590.53;5036331;28;20041;-47
2020/12/02 05:06:33;;;;;;;64.35;29.27;;;;;;;-3.58;100.00;101593.03;5038781;28;20104;-50
2020/12/02 05:09:12;;;;;;;64.30;29.98;;;;;;;-3.53;100.00;101595.97;5030393;28;20044;-47
2020/12/02 05:11:40;;;;;;;65.22;30.70;;;;;;;-3.45;100.00;101590.09;5034408;28;20073;-51
2020/12/02 05:14:13;;;;;;;65.47;29.70;;;;;;;-3.47;100.00;101589.03;5026705;28;20057;-45
2020/12/02 05:16:40;;;;;;;66.22;30.30;;;;;;;-3.44;100.00;101590.22;5043333;28;20111;-47
2020/12/02 05:19:20;;;;;;;63.10;30.30;;;;;;;-3.48;100.00;101588.16;5026007;28;20343;-48
2020/12/02 05:21:47;;;;;;;60.85;28.45;;;;;;;-3.33;100.00;101587.16;5037402;28;20075;-46
2020/12/02 05:24:16;;;;;;;59.53;29.00;;;;;;;-3.32;100.00;101585.53;5034519;28;20053;-47
2020/12/02 05:26:50;;;;;;;68.82;30.92;;;;;;;-3.38;100.00;101583.28;5030796;28;20528;-51
2020/12/02 05:29:47;;;;;;;64.07;30.70;;;;;;;-3.36;100.00;101583.47;5031188;28;20403;-49
2020/12/02 05:32:20;;;;;;;63.38;29.75;;;;;;;-3.45;100.00;101583.47;5047692;28;20059;-47
2020/12/02 05:34:47;;;;;;;64.75;30.23;;;;;;;-3.40;100.00;101577.28;5046232;28;20060;-49
2020/12/02 05:37:23;;;;;;;61.63;29.50;;;;;;;-3.32;100.00;101578.00;5043441;28;20084;-50
2020/12/02 05:39:56;;;;;;;65.40;28.92;;;;;;;-3.40;100.00;101579.78;5042746;28;20056;-49
2020/12/02 05:42:31;;;;;;;64.22;30.10;;;;;;;-3.34;100.00;101581.97;5049661;28;20126;-45
2020/12/02 05:45:17;;;;;;;;;;;;;;;-3.31;100.00;101578.88;5055238;28;20844;-50
2020/12/02 05:47:48;;;;;;;68.38;30.38;;;;;;;-3.38;100.00;101583.28;5053931;28;19956;-47
2020/12/02 05:50:23;;;;;;;66.47;31.75;;;;;;;-3.09;100.00;101580.19;5057139;28;20556;-51
2020/12/02 05:52:56;;;;;;;63.50;29.20;;;;;;;-3.19;100.00;101580.03;5056053;28;20066;-48
2020/12/02 05:55:27;;;;;;;69.38;31.58;;;;;;;-3.29;100.00;101584.91;5037544;28;20235;-49
2020/12/02 05:57:58;;;;;;;57.60;28.38;;;;;;;-3.03;100.00;101579.88;5028922;28;20041;-49
2020/12/02 06:00:28;;;;;;;59.85;29.10;;;;;;;-3.33;100.00;101573.72;5033738;28;20053;-49
2020/12/02 06:02:56;;;;;;;62.65;30.15;;;;;;;-3.46;100.00;101569.19;5039503;28;20433;-48
2020/12/02 06:05:24;;;;;;;57.65;28.65;;;;;;;-3.29;100.00;101570.75;5041045;28;20118;-49
2020/12/02 06:07:55;;;;;;;56.13;26.55;;;;;;;-3.29;100.00;101575.78;5039079;28;20111;-50
2020/12/02 06:10:47;;;;;;;59.40;28.13;;;;;;;-3.43;100.00;101568.56;5037591;28;20049;-48
2020/12/02 06:13:35;;;;;;;73.47;35.33;;;;;;;-3.53;100.00;101563.44;4999236;28;20049;-50
2020/12/02 06:16:03;;;;;;;71.28;33.78;;;;;;;-3.46;100.00;101564.19;5053304;28;20040;-48
2020/12/02 06:18:32;;;;;;;76.68;33.58;;;;;;;-3.30;100.00;101561.50;5061987;28;20044;-47
2020/12/02 06:20:59;;;;;;;76.93;33.38;;;;;;;-3.36;100.00;101564.31;5053999;28;20044;-46
2020/12/02 06:23:43;;;;;;;82.15;33.33;;;;;;;-3.34;100.00;101559.44;5057644;28;20057;-47
2020/12/02 06:26:10;;;;;;;79.50;34.35;;;;;;;-3.36;100.00;101555.91;5055225;28;20029;-50
2020/12/02 06:28:39;;;;;;;70.47;31.55;;;;;;;-3.20;100.00;101561.63;5056044;28;20048;-52
2020/12/02 06:31:17;;;;;;;73.70;31.50;;;;;;;-3.20;100.00;101550.72;5058694;28;20127;-49
2020/12/02 06:33:48;;;;;;;60.80;29.67;;;;;;;-3.22;100.00;101560.59;5057233;28;20072;-48
2020/12/02 06:36:25;;;;;;;59.30;28.92;;;;;;;-3.14;100.00;101557.22;5053252;28;20044;-48
2020/12/02 06:39:05;;;;;;;62.55;28.65;;;;;;;-2.98;100.00;101546.97;5054605;28;20041;-47
2020/12/02 06:41:35;;;;;;;60.78;28.58;;;;;;;-2.98;100.00;101549.50;5030472;28;20418;-49
2020/12/02 06:44:16;;;;;;;53.33;27.00;;;;;;;-3.00;100.00;101547.59;5039190;28;20096;-45
2020/12/02 06:47:04;;;;;;;64.22;29.90;;;;;;;-3.22;100.00;101544.69;5037623;28;20086;-43
2020/12/02 06:49:37;;;;;;;62.92;29.45;;;;;;;-3.08;100.00;101549.38;5059362;28;20041;-44
2020/12/02 06:52:10;;;;;;;64.13;29.85;;;;;;;-3.15;100.00;101552.91;5053701;28;20910;-44
2020/12/02 06:54:40;;;;;;;64.65;29.75;;;;;;;-3.10;100.00;101553.34;5051752;28;20055;-46
2020/12/02 06:57:24;;;;;;;64.30;29.45;;;;;;;-2.84;100.00;101548.25;5044065;28;20049;-45
2020/12/02 06:59:59;;;;;;;66.05;29.70;;;;;;;-2.92;100.00;101556.69;5054143;28;20041;-43
2020/12/02 07:02:35;;;;;;;56.40;27.98;;;;;;;-2.65;100.00;101559.22;5056650;28;20060;-44
2020/12/02 07:05:09;;;;;;;64.72;30.40;;;;;;;-2.34;100.00;101540.34;5048449;28;20069;-43
2020/12/02 07:07:36;;;;;;;57.28;28.90;;;;;;;-2.78;100.00;101553.81;5052954;28;20049;-44
2020/12/02 07:10:03;;;;;;;58.85;28.52;;;;;;;-2.81;100.00;101556.06;5054378;28;20447;-45
2020/12/02 07:12:31;;;;;;;62.30;28.17;;;;;;;-2.82;100.00;101549.28;5055590;28;20401;-44
2020/12/02 07:15:01;;;;;;;57.88;29.08;;;;;;;-2.83;100.00;101543.38;5053908;28;20410;-47
2020/12/02 07:17:28;;;;;;;63.92;30.48;;;;;;;-2.55;100.00;101540.91;5052279;28;20045;-43
2020/12/02 07:20:04;;;;;;;65.03;30.33;;;;;;;-2.73;100.00;101554.25;5023445;28;20413;-44
2020/12/02 07:22:36;;;;;;;64.97;30.08;;;;;;;-2.71;100.00;101558.69;5051972;28;20045;-44
2020/12/02 07:25:08;;;;;;;68.43;32.13;;;;;;;-2.68;100.00;101548.94;5055232;28;20122;-46
2020/12/02 07:27:44;;;;;;;71.00;32.47;;;;;;;-2.50;100.00;101547.22;5057348;28;20146;-42
2020/12/02 07:30:35;;;;;;;67.50;32.07;;;;;;;-2.43;100.00;101549.56;5045483;28;20056;-43
2020/12/02 07:33:29;;;;;;;65.15;32.00;;;;;;;-2.59;100.00;101546.38;5036652;28;20295;-43
2020/12/02 07:36:15;;;;;;;67.78;30.90;;;;;;;-2.46;100.00;101543.38;5051467;28;20099;-45
2020/12/02 07:38:43;;;;;;;66.45;31.65;;;;;;;-2.41;100.00;101545.53;5056724;28;20045;-43
2020/12/02 07:41:18;;;;;;;67.95;32.20;;;;;;;-2.42;100.00;101536.25;5043066;28;20918;-44
2020/12/02 07:43:47;;;;;;;64.50;31.65;;;;;;;-2.46;100.00;101538.34;5051234;28;20053;-43
2020/12/02 07:46:15;;;;;;;73.95;33.28;;;;;;;-2.37;100.00;101545.09;5055097;28;20390;-42
2020/12/02 07:48:42;;;;;;;70.43;34.10;;;;;;;-2.25;100.00;101549.47;5055623;28;20726;-45
2020/12/02 07:51:20;;;;;;;64.57;32.85;;;;;;;-2.20;100.00;101548.25;5034304;28;20048;-42
2020/12/02 07:53:55;;;;;;;66.20;32.25;;;;;;;-2.17;100.00;101554.44;5043245;28;20126;-46
2020/12/02 07:56:27;;;;;;;66.45;31.30;;;;;;;-2.18;100.00;101551.75;5044222;28;20095;-43
2020/12/02 07:58:55;;;;;;;69.07;33.08;;;;;;;-2.05;100.00;101559.66;5046955;28;20463;-43
2020/12/02 08:01:59;;;;;;;67.78;31.73;;;;;;;-2.02;100.00;101559.06;5047104;28;20098;-45
2020/12/02 08:04:28;;;;;;;64.93;31.67;;;;;;;-1.83;100.00;101558.31;5021650;28;20042;-42
2020/12/02 08:06:54;;;;;;;65.20;32.28;;;;;;;-1.94;100.00;101554.00;5032049;28;20050;-47
2020/12/02 08:09:21;;;;;;;70.03;34.40;;;;;;;-1.87;100.00;101551.25;5031225;28;20053;-43
2020/12/02 08:12:00;;;;;;;68.47;32.05;;;;;;;-1.95;100.00;101554.69;5030076;28;20076;-42
2020/12/02 08:14:32;;;;;;;80.38;35.70;;;;;;;-1.90;100.00;101550.09;5042220;28;20041;-44
2020/12/02 08:17:22;;;;;;;72.13;33.42;;;;;;;-1.89;100.00;101552.75;5046437;28;20098;-41
2020/12/02 08:19:55;;;;;;;71.85;32.65;;;;;;;-1.85;100.00;101554.81;5045600;28;20126;-42
2020/12/02 08:22:42;;;;;;;67.30;32.80;;;;;;;-1.81;100.00;101538.34;5051176;28;20055;-41
2020/12/02 08:25:47;;;;;;;64.07;33.15;;;;;;;-1.76;100.00;101537.13;5018442;28;20126;-43
2020/12/02 08:28:23;;;;;;;69.53;33.85;;;;;;;-1.86;100.00;101537.06;5032058;28;20037;-42
2020/12/02 08:31:08;;;;;;;;;;;;;;;-1.70;100.00;101535.19;5022562;28;20767;-43
2020/12/02 08:33:35;;;;;;;66.93;32.70;;;;;;;-1.55;100.00;101536.53;5045388;28;20332;-45
2020/12/02 08:36:07;;;;;;;71.60;34.97;;;;;;;-1.52;100.00;101543.44;5045097;28;20077;-42
2020/12/02 08:38:38;;;;;;;67.82;33.42;;;;;;;-1.49;100.00;101530.25;5046648;28;20052;-42
2020/12/02 08:41:14;;;;;;;74.63;35.05;;;;;;;-1.47;100.00;101537.19;5047528;28;20045;-43
2020/12/02 08:43:52;;;;;;;69.63;33.35;;;;;;;-1.53;100.00;101534.13;5045718;28;20069;-43
2020/12/02 08:46:25;;;;;;;64.82;32.20;;;;;;;-1.20;100.00;101522.72;5038519;28;20555;-41
2020/12/02 08:49:01;;;;;;;67.63;32.28;;;;;;;-1.19;100.00;101525.38;5047504;28;20048;-43
2020/12/02 08:51:28;;;;;;;70.45;33.42;;;;;;;-0.94;99.80;101523.31;5051597;28;20152;-41
2020/12/02 08:53:55;;;;;;;65.22;32.95;;;;;;;-0.75;99.40;101524.88;5045581;28;20041;-41
2020/12/02 08:56:34;;;;;;;67.35;30.70;;;;;;;-0.50;98.65;101525.31;5045328;28;20048;-45
2020/12/02 08:59:02;;;;;;;66.60;32.20;;;;;;;-1.04;98.32;101513.25;5045596;28;20045;-44
2020/12/02 09:01:28;;;;;;;66.07;32.75;;;;;;;-0.40;97.68;101517.75;5045528;28;20179;-43
2020/12/02 09:03:55;;;;;;;65.15;31.40;;;;;;;-0.71;96.96;101510.16;5045543;28;20062;-43
2020/12/02 09:06:22;;;;;;;65.35;32.95;;;;;;;-1.03;98.90;101507.47;5045869;28;20045;-47
2020/12/02 09:08:49;;;;;;;67.38;33.47;;;;;;;-0.83;99.30;101510.03;5044727;28;20055;-46
2020/12/02 09:11:29;;;;;;;66.43;33.10;;;;;;;-0.82;99.36;101508.41;5045733;28;20106;-44
2020/12/02 09:13:56;;;;;;;61.33;32.17;;;;;;;-0.40;98.18;101511.09;5045367;28;20049;-45
2020/12/02 09:16:34;;;;;;;64.45;31.65;;;;;;;-0.51;97.32;101506.78;5044834;28;20057;-44
2020/12/02 09:19:02;;;;;;;66.93;33.50;;;;;;;-0.80;98.73;101502.72;5048140;28;20447;-44
2020/12/02 09:21:29;;;;;;;67.32;36.05;;;;;;;-0.79;98.93;101509.53;5041515;28;20053;-46
2020/12/02 09:23:58;;;;;;;68.15;35.38;;;;;;;-0.87;99.49;101500.47;5030417;28;20049;-41
2020/12/02 09:26:33;;;;;;;73.30;36.65;;;;;;;-0.79;100.00;101499.50;5033492;28;20708;-42
2020/12/02 09:29:05;;;;;;;67.90;35.47;;;;;;;-0.81;100.00;101495.06;5032775;28;20041;-43
2020/12/02 09:31:33;;;;;;;61.97;33.65;;;;;;;-0.56;99.85;101501.38;5034182;28;20678;-49
2020/12/02 09:34:03;;;;;;;68.03;34.42;;;;;;;-0.61;100.00;101496.72;5032061;28;20045;-44
2020/12/02 09:36:30;;;;;;;66.90;34.90;;;;;;;-0.72;99.54;101493.31;5024952;28;20125;-44
2020/12/02 09:38:57;;;;;;;64.55;32.75;;;;;;;-0.41;98.83;101494.25;5033247;28;20076;-44
2020/12/02 09:42:06;;;;;;;62.00;32.67;;;;;;;-0.36;98.96;101490.47;5030162;28;20073;-46
2020/12/02 09:44:43;;;;;;;61.15;32.13;;;;;;;-0.47;98.56;101488.69;5035732;28;20207;-43
2020/12/02 09:47:15;;;;;;;61.97;32.08;;;;;;;-0.47;99.28;101487.81;5045092;28;20555;-48
2020/12/02 09:49:45;;;;;;;63.40;32.53;;;;;;;-0.43;99.08;101488.19;5045629;28;20547;-45
2020/12/02 09:52:12;;;;;;;66.25;33.42;;;;;;;-0.40;98.98;101483.41;5044854;28;20213;-44
2020/12/02 09:54:44;;;;;;;59.83;32.42;;;;;;;-0.49;99.03;101477.63;5045465;28;20513;-47
2020/12/02 09:57:24;;;;;;;65.32;33.95;;;;;;;-0.16;98.97;101474.47;5022916;28;20077;-45
2020/12/02 09:59:54;;;;;;;63.15;33.05;;;;;;;-0.02;98.63;101476.44;5043709;28;20048;-44
2020/12/02 10:02:50;;;;;;;64.20;33.05;;;;;;;-0.10;98.33;101467.38;5045235;28;20433;-47
2020/12/02 10:05:48;;;;;;;61.83;33.10;;;;;;;-0.16;97.66;101461.88;5025536;28;20057;-45
2020/12/02 10:08:33;;;;;;;58.38;31.10;;;;;;;-0.22;98.70;101453.84;5025594;28;20470;-45
2020/12/02 10:11:17;;;;;;;64.85;35.35;;;;;;;0.18;98.42;101455.38;5046392;28;20043;-43
2020/12/02 10:13:44;;;;;;;61.38;32.42;;;;;;;0.09;96.16;101446.22;5051766;28;20041;-45
2020/12/02 10:16:29;;;;;;;58.15;32.22;;;;;;;0.11;96.64;101450.63;5053428;28;20098;-45
2020/12/02 10:19:15;;;;;;;64.30;33.72;;;;;;;0.21;96.97;101443.03;5045381;28;20056;-46
2020/12/02 10:22:01;;;;;;;59.70;31.73;;;;;;;0.08;97.07;101431.88;5048397;28;20055;-43
2020/12/02 10:24:45;;;;;;;67.05;32.30;;;;;;;0.42;96.78;101432.91;5040491;28;20390;-48
2020/12/02 10:27:17;;;;;;;66.25;33.20;;;;;;;0.20;96.99;101433.72;5045230;28;20041;-43
2020/12/02 10:30:08;;;;;;;67.85;34.42;;;;;;;0.25;96.52;101427.41;5044975;28;20048;-47
2020/12/02 10:32:56;;;;;;;68.65;34.53;;;;;;;0.02;97.08;101427.22;5044761;28;20112;-44
2020/12/02 10:35:23;;;;;;;61.10;32.83;;;;;;;0.67;96.44;101418.03;5045196;28;20049;-42
2020/12/02 10:37:54;;;;;;;59.30;34.05;;;;;;;0.44;94.93;101414.59;5045410;28;20088;-43
2020/12/02 10:40:21;;;;;;;65.15;33.97;;;;;;;0.46;95.90;101419.75;5044665;28;20053;-45
2020/12/02 10:43:06;;;;;;;62.53;34.38;;;;;;;0.34;95.69;101414.66;5044887;28;20055;-44
2020/12/02 10:45:32;;;;;;;62.67;34.38;;;;;;;0.33;96.37;101414.53;5044564;28;20049;-47
2020/12/02 10:48:17;;;;;;;62.30;33.03;;;;;;;0.38;96.64;101411.63;5044921;28;20623;-42
2020/12/02 10:50:44;;;;;;;63.10;34.47;;;;;;;0.60;95.38;101401.56;5044517;28;20091;-44
2020/12/02 10:53:15;;;;;;;63.83;34.63;;;;;;;0.95;95.38;101399.19;5044958;28;20781;-46
2020/12/02 10:55:42;;;;;;;58.58;31.83;;;;;;;0.88;93.63;101384.38;5045799;28;20418;-47
2020/12/02 10:58:21;;;;;;;60.65;33.75;;;;;;;0.61;94.22;101390.72;5044320;28;20056;-46
2020/12/02 11:00:52;;;;;;;64.18;33.65;;;;;;;0.47;95.13;101378.69;5043877;28;20045;-43
2020/12/02 11:03:26;;;;;;;59.42;34.88;;;;;;;0.60;94.53;101375.47;5044007;28;20056;-41
2020/12/02 11:05:59;;;;;;;62.25;33.42;;;;;;;0.87;94.36;101367.47;5044141;28;20176;-45
2020/12/02 11:08:53;;;;;;;61.08;32.95;;;;;;;1.50;91.02;101359.50;5044174;28;20064;-47
2020/12/02 11:11:52;;;;;;;53.70;31.55;;;;;;;1.51;89.28;101346.97;5043918;28;20048;-46
2020/12/02 11:14:31;;;;;;;58.15;32.22;;;;;;;1.24;91.39;101339.94;5046234;28;20118;-45
2020/12/02 11:17:23;;;;;;;60.05;32.83;;;;;;;1.07;91.74;101342.88;5044683;28;20048;-44
2020/12/02 11:19:59;;;;;;;64.15;35.72;;;;;;;0.98;92.02;101338.03;5045780;28;20053;-45
2020/12/02 11:22:46;;;;;;;61.72;32.95;;;;;;;1.39;89.87;101333.50;5044779;28;20102;-45
2020/12/02 11:25:53;;;;;;;66.68;34.92;;;;;;;0.88;92.17;101328.00;5044827;28;20045;-44
2020/12/02 11:28:20;;;;;;;;;;;;;;;0.95;92.34;101327.72;5043526;28;21522;-41
2020/12/02 11:30:47;;;;;;;64.50;35.33;;;;;;;1.04;92.93;101325.00;5043850;28;19956;-43
2020/12/02 11:33:32;;;;;;;61.83;33.30;;;;;;;1.11;92.28;101317.09;5047423;28;20497;-42